sensor_id;sensor_type;location;lat;lon;timestamp;pressure;altitude;pressure_sealevel;temperature;humidity
28683;BME280;15862;43.062;25.626;2023-02-12T00:00:37;101163.66;;;-2.94;100.00
28683;BME280;15862;43.062;25.626;2023-02-12T00:03:03;101165.31;;;-2.90;100.00
28683;BME280;15862;43.062;25.626;2023-02-12T00:05:28;101175.44;;;-2.87;100.00
28683;BME280;15862;43.062;25.626;2023-02-12T00:07:54;101163.66;;;-2.88;100.00
28683;BME280;15862;43.062;25.626;2023-02-12T00:10:20;101165.34;;;-2.93;100.00
28683;BME280;15862;43.062;25.626;2023-02-12T00:12:45;101171.19;;;-3.02;100.00
28683;BME280;15862;43.062;25.626;2023-02-12T00:15:11;101175.44;;;-2.98;100.00
28683;BME280;15862;43.062;25.626;2023-02-12T00:17:36;101167.00;;;-3.00;100.00
28683;BME280;15862;43.062;25.626;2023-02-12T00:20:02;101170.38;;;-2.96;100.00
28683;BME280;15862;43.062;25.626;2023-02-12T00:22:28;101161.97;;;-2.92;100.00
28683;BME280;15862;43.062;25.626;2023-02-12T00:24:54;101162.81;;;-2.92;100.00
28683;BME280;15862;43.062;25.626;2023-02-12T00:27:20;101159.44;;;-2.92;100.00
28683;BME280;15862;43.062;25.626;2023-02-12T00:29:45;101153.53;;;-2.97;100.00
28683;BME280;15862;43.062;25.626;2023-02-12T00:32:11;101165.34;;;-2.99;100.00
28683;BME280;15862;43.062;25.626;2023-02-12T00:34:39;101167.03;;;-3.03;100.00
28683;BME280;15862;43.062;25.626;2023-02-12T00:37:04;101136.66;;;-3.31;100.00
28683;BME280;15862;43.062;25.626;2023-02-12T00:39:30;101147.63;;;-3.29;100.00
28683;BME280;15862;43.062;25.626;2023-02-12T00:41:55;101169.50;;;-3.32;100.00
28683;BME280;15862;43.062;25.626;2023-02-12T00:44:21;101159.34;;;-3.46;100.00
28683;BME280;15862;43.062;25.626;2023-02-12T00:46:46;101169.44;;;-3.53;100.00
28683;BME280;15862;43.062;25.626;2023-02-12T00:49:11;101171.13;;;-3.51;100.00
28683;BME280;15862;43.062;25.626;2023-02-12T00:51:38;101162.69;;;-3.57;100.00
28683;BME280;15862;43.062;25.626;2023-02-12T00:54:03;101160.13;;;-3.62;100.00
28683;BME280;15862;43.062;25.626;2023-02-12T00:56:29;101156.75;;;-3.70;100.00
28683;BME280;15862;43.062;25.626;2023-02-12T00:58:54;101160.13;;;-3.75;100.00
28683;BME280;15862;43.062;25.626;2023-02-12T01:01:20;101155.88;;;-3.82;100.00
28683;BME280;15862;43.062;25.626;2023-02-12T01:03:45;101165.13;;;-3.85;100.00
28683;BME280;15862;43.062;25.626;2023-02-12T01:06:10;101157.53;;;-3.90;100.00
28683;BME280;15862;43.062;25.626;2023-02-12T01:08:36;101160.88;;;-3.97;100.00
28683;BME280;15862;43.062;25.626;2023-02-12T01:11:03;101161.66;;;-3.99;100.00
28683;BME280;15862;43.062;25.626;2023-02-12T01:13:30;101161.66;;;-4.02;100.00
28683;BME280;15862;43.062;25.626;2023-02-12T01:16:01;101152.38;;;-4.09;100.00
28683;BME280;15862;43.062;25.626;2023-02-12T01:18:27;101157.38;;;-4.17;100.00
28683;BME280;15862;43.062;25.626;2023-02-12T01:20:52;101145.59;;;-4.22;100.00
28683;BME280;15862;43.062;25.626;2023-02-12T01:23:18;101144.75;;;-4.24;100.00
28683;BME280;15862;43.062;25.626;2023-02-12T01:25:43;101149.78;;;-4.24;100.00
28683;BME280;15862;43.062;25.626;2023-02-12T01:28:09;101134.59;;;-4.33;100.00
28683;BME280;15862;43.062;25.626;2023-02-12T01:30:35;101110.19;;;-4.40;100.00
28683;BME280;15862;43.062;25.626;2023-02-12T01:33:00;101149.91;;;-4.05;100.00
28683;BME280;15862;43.062;25.626;2023-02-12T01:35:26;101151.66;;;-3.87;100.00
28683;BME280;15862;43.062;25.626;2023-02-12T01:37:52;101139.91;;;-3.77;100.00
28683;BME280;15862;43.062;25.626;2023-02-12T01:40:17;101144.13;;;-3.73;100.00
28683;BME280;15862;43.062;25.626;2023-02-12T01:42:42;101140.78;;;-3.72;100.00
28683;BME280;15862;43.062;25.626;2023-02-12T01:47:36;101134.06;;;-3.62;100.00
28683;BME280;15862;43.062;25.626;2023-02-12T01:50:02;101121.47;;;-3.58;100.00
28683;BME280;15862;43.062;25.626;2023-02-12T01:52:31;101115.59;;;-3.46;100.00
28683;BME280;15862;43.062;25.626;2023-02-12T01:55:01;101113.09;;;-3.36;100.00
28683;BME280;15862;43.062;25.626;2023-02-12T01:57:30;101108.03;;;-3.27;100.00
28683;BME280;15862;43.062;25.626;2023-02-12T01:59:57;101100.47;;;-3.22;100.00
28683;BME280;15862;43.062;25.626;2023-02-12T02:02:24;101103.00;;;-3.18;100.00
28683;BME280;15862;43.062;25.626;2023-02-12T02:04:54;101098.81;;;-3.13;100.00
28683;BME280;15862;43.062;25.626;2023-02-12T02:07:21;101072.69;;;-3.24;100.00
28683;BME280;15862;43.062;25.626;2023-02-12T02:09:46;101098.78;;;-3.04;100.00
28683;BME280;15862;43.062;25.626;2023-02-12T02:12:12;101097.97;;;-3.06;100.00
28683;BME280;15862;43.062;25.626;2023-02-12T02:14:58;101092.06;;;-3.06;100.00
28683;BME280;15862;43.062;25.626;2023-02-12T02:17:34;101075.22;;;-3.07;100.00
28683;BME280;15862;43.062;25.626;2023-02-12T02:31:22;101092.88;;;-2.93;100.00
28683;BME280;15862;43.062;25.626;2023-02-12T02:33:54;101084.47;;;-2.90;100.00
28683;BME280;15862;43.062;25.626;2023-02-12T02:36:36;101082.81;;;-2.91;100.00
28683;BME280;15862;43.062;25.626;2023-02-12T02:39:09;101082.78;;;-2.97;100.00
28683;BME280;15862;43.062;25.626;2023-02-12T02:41:43;101074.38;;;-2.99;100.00
28683;BME280;15862;43.062;25.626;2023-02-12T02:44:16;101071.00;;;-3.04;100.00
28683;BME280;15862;43.062;25.626;2023-02-12T02:46:46;101072.69;;;-3.02;100.00
28683;BME280;15862;43.062;25.626;2023-02-12T02:49:16;101069.34;;;-3.12;100.00
28683;BME280;15862;43.062;25.626;2023-02-12T02:51:47;101086.16;;;-2.95;100.00
28683;BME280;15862;43.062;25.626;2023-02-12T02:54:34;101083.66;;;-2.88;100.00
28683;BME280;15862;43.062;25.626;2023-02-12T02:57:25;101081.09;;;-2.80;100.00
28683;BME280;15862;43.062;25.626;2023-02-12T02:59:56;101052.47;;;-2.94;100.00
28683;BME280;15862;43.062;25.626;2023-02-12T03:02:31;101084.47;;;-2.72;100.00
28683;BME280;15862;43.062;25.626;2023-02-12T03:05:12;101078.56;;;-2.74;100.00
28683;BME280;15862;43.062;25.626;2023-02-12T03:07:51;101090.34;;;-2.64;100.00
28683;BME280;15862;43.062;25.626;2023-02-12T03:10:41;101086.13;;;-2.56;100.00
28683;BME280;15862;43.062;25.626;2023-02-12T03:13:12;101079.38;;;-2.53;100.00
28683;BME280;15862;43.062;25.626;2023-02-12T03:18:08;101076.78;;;-2.41;100.00
28683;BME280;15862;43.062;25.626;2023-02-12T03:21:00;101082.72;;;-2.40;100.00
28683;BME280;15862;43.062;25.626;2023-02-12T03:23:41;101081.84;;;-2.38;100.00
28683;BME280;15862;43.062;25.626;2023-02-12T03:26:13;101078.47;;;-2.31;100.00
28683;BME280;15862;43.062;25.626;2023-02-12T03:28:42;101080.97;;;-2.27;100.00
28683;BME280;15862;43.062;25.626;2023-02-12T03:36:34;101086.00;;;-2.21;100.00
28683;BME280;15862;43.062;25.626;2023-02-12T03:42:08;101081.75;;;-2.08;100.00
28683;BME280;15862;43.062;25.626;2023-02-12T03:52:29;101085.94;;;-2.04;100.00
28683;BME280;15862;43.062;25.626;2023-02-12T03:54:55;101083.44;;;-2.06;100.00
28683;BME280;15862;43.062;25.626;2023-02-12T03:57:24;101080.03;;;-2.03;100.00
28683;BME280;15862;43.062;25.626;2023-02-12T03:59:55;101079.22;;;-2.04;100.00
28683;BME280;15862;43.062;25.626;2023-02-12T04:02:21;101084.28;;;-2.04;100.00
28683;BME280;15862;43.062;25.626;2023-02-12T04:04:47;101074.97;;;-2.06;100.00
28683;BME280;15862;43.062;25.626;2023-02-12T04:07:13;101085.97;;;-2.15;100.00
28683;BME280;15862;43.062;25.626;2023-02-12T04:09:39;101079.22;;;-2.11;100.00
28683;BME280;15862;43.062;25.626;2023-02-12T04:20:02;101093.47;;;-1.86;100.00
28683;BME280;15862;43.062;25.626;2023-02-12T04:27:58;101097.69;;;-1.90;100.00
28683;BME280;15862;43.062;25.626;2023-02-12T04:30:34;101085.00;;;-1.85;100.00
28683;BME280;15862;43.062;25.626;2023-02-12T04:33:03;101086.69;;;-1.83;100.00
28683;BME280;15862;43.062;25.626;2023-02-12T04:35:39;101096.72;;;-1.69;100.00
28683;BME280;15862;43.062;25.626;2023-02-12T04:40:33;101105.16;;;-1.63;100.00
28683;BME280;15862;43.062;25.626;2023-02-12T04:42:59;101100.09;;;-1.63;100.00
28683;BME280;15862;43.062;25.626;2023-02-12T04:45:28;101093.34;;;-1.68;100.00
28683;BME280;15862;43.062;25.626;2023-02-12T04:47:53;101116.03;;;-1.52;100.00
28683;BME280;15862;43.062;25.626;2023-02-12T04:50:19;101116.91;;;-1.52;100.00
28683;BME280;15862;43.062;25.626;2023-02-12T04:52:45;101116.06;;;-1.55;100.00
28683;BME280;15862;43.062;25.626;2023-02-12T04:55:11;101122.84;;;-1.57;100.00
28683;BME280;15862;43.062;25.626;2023-02-12T04:57:36;101121.16;;;-1.58;100.00
28683;BME280;15862;43.062;25.626;2023-02-12T05:00:04;101128.78;;;-1.61;100.00
28683;BME280;15862;43.062;25.626;2023-02-12T05:02:30;101102.69;;;-1.75;100.00
28683;BME280;15862;43.062;25.626;2023-02-12T05:04:55;101134.66;;;-1.56;100.00
28683;BME280;15862;43.062;25.626;2023-02-12T05:07:21;101132.09;;;-1.54;100.00
28683;BME280;15862;43.062;25.626;2023-02-12T05:09:46;101145.63;;;-1.54;100.00
28683;BME280;15862;43.062;25.626;2023-02-12T05:12:11;101146.44;;;-1.49;100.00
28683;BME280;15862;43.062;25.626;2023-02-12T05:14:37;101151.50;;;-1.49;100.00
28683;BME280;15862;43.062;25.626;2023-02-12T05:17:02;101154.03;;;-1.51;100.00
28683;BME280;15862;43.062;25.626;2023-02-12T05:19:27;101165.00;;;-1.47;100.00
28683;BME280;15862;43.062;25.626;2023-02-12T05:21:53;101168.31;;;-1.38;100.00
28683;BME280;15862;43.062;25.626;2023-02-12T05:24:18;101174.22;;;-1.42;100.00
28683;BME280;15862;43.062;25.626;2023-02-12T05:26:44;101176.75;;;-1.39;100.00
28683;BME280;15862;43.062;25.626;2023-02-12T05:29:09;101173.41;;;-1.39;100.00
28683;BME280;15862;43.062;25.626;2023-02-12T05:31:34;101177.63;;;-1.44;100.00
28683;BME280;15862;43.062;25.626;2023-02-12T05:34:00;101175.94;;;-1.39;100.00
28683;BME280;15862;43.062;25.626;2023-02-12T05:36:26;101182.66;;;-1.35;100.00
28683;BME280;15862;43.062;25.626;2023-02-12T05:38:55;101185.19;;;-1.35;100.00
28683;BME280;15862;43.062;25.626;2023-02-12T05:41:22;101182.66;;;-1.35;100.00
28683;BME280;15862;43.062;25.626;2023-02-12T05:43:48;101164.16;;;-1.49;100.00
28683;BME280;15862;43.062;25.626;2023-02-12T05:46:15;101182.69;;;-1.37;100.00
28683;BME280;15862;43.062;25.626;2023-02-12T05:48:41;101196.97;;;-1.25;100.00
28683;BME280;15862;43.062;25.626;2023-02-12T05:51:09;101207.06;;;-1.22;100.00
28683;BME280;15862;43.062;25.626;2023-02-12T05:53:36;101207.91;;;-1.20;100.00
28683;BME280;15862;43.062;25.626;2023-02-12T05:56:13;101205.38;;;-1.20;100.00
28683;BME280;15862;43.062;25.626;2023-02-12T05:58:40;101220.53;;;-1.11;100.00
28683;BME280;15862;43.062;25.626;2023-02-12T06:01:11;101222.19;;;-1.07;100.00
28683;BME280;15862;43.062;25.626;2023-02-12T06:03:36;101220.44;;;-0.98;100.00
28683;BME280;15862;43.062;25.626;2023-02-12T06:06:02;101219.56;;;-0.89;100.00
28683;BME280;15862;43.062;25.626;2023-02-12T06:08:28;101207.72;;;-0.87;100.00
28683;BME280;15862;43.062;25.626;2023-02-12T06:10:54;101228.81;;;-0.82;100.00
28683;BME280;15862;43.062;25.626;2023-02-12T06:13:24;101228.91;;;-1.00;100.00
28683;BME280;15862;43.062;25.626;2023-02-12T06:15:49;101235.81;;;-1.22;100.00
28683;BME280;15862;43.062;25.626;2023-02-12T06:18:14;101231.59;;;-1.30;100.00
28683;BME280;15862;43.062;25.626;2023-02-12T06:20:40;101231.59;;;-1.26;100.00
28683;BME280;15862;43.062;25.626;2023-02-12T06:23:05;101231.53;;;-1.14;100.00
28683;BME280;15862;43.062;25.626;2023-02-12T06:25:30;101225.53;;;-0.99;100.00
28683;BME280;15862;43.062;25.626;2023-02-12T06:27:56;101233.94;;;-0.91;100.00
28683;BME280;15862;43.062;25.626;2023-02-12T06:30:21;101242.28;;;-0.75;100.00
28683;BME280;15862;43.062;25.626;2023-02-12T06:32:50;101196.81;;;-1.01;100.00
28683;BME280;15862;43.062;25.626;2023-02-12T06:35:15;101242.97;;;-0.58;100.00
28683;BME280;15862;43.062;25.626;2023-02-12T06:37:41;101240.38;;;-0.49;100.00
28683;BME280;15862;43.062;25.626;2023-02-12T06:40:06;101248.84;;;-0.48;100.00
28683;BME280;15862;43.062;25.626;2023-02-12T06:42:32;101224.25;;;-0.42;100.00
28683;BME280;15862;43.062;25.626;2023-02-12T06:44:57;101246.88;;;-0.15;100.00
28683;BME280;15862;43.062;25.626;2023-02-12T06:47:23;101239.16;;;-0.04;100.00
28683;BME280;15862;43.062;25.626;2023-02-12T06:49:48;101223.88;;;0.01;100.00
28683;BME280;15862;43.062;25.626;2023-02-12T06:52:14;101238.16;;;0.10;100.00
28683;BME280;15862;43.062;25.626;2023-02-12T06:54:39;101244.75;;;0.26;100.00
28683;BME280;15862;43.062;25.626;2023-02-12T06:57:04;101248.00;;;0.37;100.00
28683;BME280;15862;43.062;25.626;2023-02-12T06:59:30;101252.91;;;0.55;100.00
28683;BME280;15862;43.062;25.626;2023-02-12T07:01:55;101247.00;;;0.54;100.00
28683;BME280;15862;43.062;25.626;2023-02-12T07:04:21;101247.97;;;0.43;100.00
28683;BME280;15862;43.062;25.626;2023-02-12T07:06:46;101253.69;;;0.61;100.00
28683;BME280;15862;43.062;25.626;2023-02-12T07:09:12;101266.19;;;0.77;100.00
28683;BME280;15862;43.062;25.626;2023-02-12T07:11:38;101252.34;;;0.96;100.00
28683;BME280;15862;43.062;25.626;2023-02-12T07:14:04;101258.03;;;1.16;100.00
28683;BME280;15862;43.062;25.626;2023-02-12T07:16:29;101255.19;;;1.37;100.00
28683;BME280;15862;43.062;25.626;2023-02-12T07:18:55;101261.47;;;1.68;100.00
28683;BME280;15862;43.062;25.626;2023-02-12T07:21:21;101269.56;;;1.91;100.00
28683;BME280;15862;43.062;25.626;2023-02-12T07:23:47;101259.19;;;2.03;100.00
28683;BME280;15862;43.062;25.626;2023-02-12T07:26:13;101264.81;;;2.21;99.82
28683;BME280;15862;43.062;25.626;2023-02-12T07:28:39;101264.41;;;2.40;98.18
28683;BME280;15862;43.062;25.626;2023-02-12T07:31:11;101270.91;;;2.56;97.53
28683;BME280;15862;43.062;25.626;2023-02-12T07:33:38;101257.19;;;2.62;95.81
28683;BME280;15862;43.062;25.626;2023-02-12T07:36:06;101258.56;;;2.78;94.05
28683;BME280;15862;43.062;25.626;2023-02-12T07:38:32;101251.56;;;2.87;91.91
28683;BME280;15862;43.062;25.626;2023-02-12T07:41:15;101257.06;;;3.07;92.71
28683;BME280;15862;43.062;25.626;2023-02-12T07:43:42;101251.38;;;2.95;91.98
28683;BME280;15862;43.062;25.626;2023-02-12T07:46:13;101258.63;;;3.14;91.29
28683;BME280;15862;43.062;25.626;2023-02-12T07:48:41;101256.59;;;3.28;89.97
28683;BME280;15862;43.062;25.626;2023-02-12T07:51:10;101265.13;;;3.28;86.81
28683;BME280;15862;43.062;25.626;2023-02-12T07:53:36;101254.50;;;3.45;86.51
28683;BME280;15862;43.062;25.626;2023-02-12T07:56:13;101239.13;;;3.48;85.65
28683;BME280;15862;43.062;25.626;2023-02-12T07:58:40;101253.34;;;3.58;83.97
28683;BME280;15862;43.062;25.626;2023-02-12T08:01:24;101267.28;;;3.79;84.11
28683;BME280;15862;43.062;25.626;2023-02-12T08:03:51;101241.19;;;3.69;80.18
28683;BME280;15862;43.062;25.626;2023-02-12T08:06:23;101264.78;;;3.78;81.02
28683;BME280;15862;43.062;25.626;2023-02-12T08:08:53;101260.69;;;4.04;81.84
28683;BME280;15862;43.062;25.626;2023-02-12T08:11:19;101255.84;;;4.27;80.59
28683;BME280;15862;43.062;25.626;2023-02-12T08:13:45;101261.94;;;4.52;79.37
28683;BME280;15862;43.062;25.626;2023-02-12T08:16:12;101262.22;;;4.73;75.89
28683;BME280;15862;43.062;25.626;2023-02-12T08:18:38;101259.16;;;4.90;74.50
28683;BME280;15862;43.062;25.626;2023-02-12T08:21:06;101266.34;;;5.06;73.22
28683;BME280;15862;43.062;25.626;2023-02-12T08:23:32;101262.94;;;5.34;70.35
28683;BME280;15862;43.062;25.626;2023-02-12T08:26:17;101274.34;;;5.79;68.20
28683;BME280;15862;43.062;25.626;2023-02-12T08:28:48;101278.84;;;5.97;64.81
28683;BME280;15862;43.062;25.626;2023-02-12T08:31:19;101274.75;;;6.17;65.67
28683;BME280;15862;43.062;25.626;2023-02-12T08:33:46;101281.88;;;6.34;64.48
28683;BME280;15862;43.062;25.626;2023-02-12T08:36:15;101221.56;;;6.45;61.96
28683;BME280;15862;43.062;25.626;2023-02-12T08:38:42;101258.31;;;6.93;61.62
28683;BME280;15862;43.062;25.626;2023-02-12T08:41:20;101252.66;;;7.70;58.83
28683;BME280;15862;43.062;25.626;2023-02-12T08:43:45;101242.94;;;8.18;56.68
28683;BME280;15862;43.062;25.626;2023-02-12T08:46:13;101256.56;;;8.60;54.65
28683;BME280;15862;43.062;25.626;2023-02-12T08:48:40;101251.16;;;9.21;51.54
28683;BME280;15862;43.062;25.626;2023-02-12T08:51:15;101253.63;;;9.93;49.26
28683;BME280;15862;43.062;25.626;2023-02-12T08:53:42;101258.88;;;10.25;47.96
28683;BME280;15862;43.062;25.626;2023-02-12T08:56:10;101264.38;;;10.68;47.04
28683;BME280;15862;43.062;25.626;2023-02-12T08:58:36;101274.28;;;10.61;45.92
28683;BME280;15862;43.062;25.626;2023-02-12T09:01:03;101271.53;;;10.96;45.81
28683;BME280;15862;43.062;25.626;2023-02-12T09:03:28;101266.59;;;11.38;44.98
28683;BME280;15862;43.062;25.626;2023-02-12T09:05:53;101283.72;;;12.29;42.94
28683;BME280;15862;43.062;25.626;2023-02-12T09:08:19;101291.28;;;13.17;41.60
28683;BME280;15862;43.062;25.626;2023-02-12T09:10:45;101280.66;;;12.23;41.86
28683;BME280;15862;43.062;25.626;2023-02-12T09:13:12;101270.91;;;12.42;40.18
28683;BME280;15862;43.062;25.626;2023-02-12T09:15:41;101292.31;;;12.30;39.45
28683;BME280;15862;43.062;25.626;2023-02-12T09:18:07;101295.50;;;12.06;40.45
28683;BME280;15862;43.062;25.626;2023-02-12T09:20:36;101299.00;;;13.19;39.33
28683;BME280;15862;43.062;25.626;2023-02-12T09:23:02;101305.69;;;14.90;36.88
28683;BME280;15862;43.062;25.626;2023-02-12T09:25:28;101301.13;;;14.56;36.08
28683;BME280;15862;43.062;25.626;2023-02-12T09:27:54;101298.91;;;14.26;36.65
28683;BME280;15862;43.062;25.626;2023-02-12T09:30:20;101300.25;;;14.19;36.26
28683;BME280;15862;43.062;25.626;2023-02-12T09:32:46;101297.69;;;14.05;36.59
28683;BME280;15862;43.062;25.626;2023-02-12T09:35:11;101312.41;;;13.92;35.83
28683;BME280;15862;43.062;25.626;2023-02-12T09:37:37;101308.25;;;13.63;37.07
28683;BME280;15862;43.062;25.626;2023-02-12T09:40:05;101312.91;;;13.18;37.61
28683;BME280;15862;43.062;25.626;2023-02-12T09:42:59;101315.66;;;12.30;37.31
28683;BME280;15862;43.062;25.626;2023-02-12T09:45:30;101315.34;;;10.82;39.94
28683;BME280;15862;43.062;25.626;2023-02-12T09:50:51;101307.16;;;9.54;41.74
28683;BME280;15862;43.062;25.626;2023-02-12T09:53:20;101319.78;;;9.95;41.74
28683;BME280;15862;43.062;25.626;2023-02-12T09:55:47;101304.19;;;10.15;41.75
28683;BME280;15862;43.062;25.626;2023-02-12T09:58:16;101328.09;;;10.53;40.47
28683;BME280;15862;43.062;25.626;2023-02-12T10:00:44;101311.00;;;10.50;41.05
28683;BME280;15862;43.062;25.626;2023-02-12T10:03:13;101330.56;;;10.54;39.91
28683;BME280;15862;43.062;25.626;2023-02-12T10:05:46;101331.22;;;10.08;41.13
28683;BME280;15862;43.062;25.626;2023-02-12T10:27:50;101342.78;;;13.37;37.29
28683;BME280;15862;43.062;25.626;2023-02-12T10:30:51;101347.91;;;13.39;37.21
28683;BME280;15862;43.062;25.626;2023-02-12T10:35:52;101355.81;;;14.43;35.93
28683;BME280;15862;43.062;25.626;2023-02-12T10:38:23;101359.50;;;14.14;36.34
28683;BME280;15862;43.062;25.626;2023-02-12T10:40:51;101364.41;;;13.24;36.67
28683;BME280;15862;43.062;25.626;2023-02-12T10:43:19;101356.06;;;13.05;36.56
28683;BME280;15862;43.062;25.626;2023-02-12T10:45:44;101350.31;;;13.00;36.89
28683;BME280;15862;43.062;25.626;2023-02-12T10:53:23;101357.38;;;11.65;39.20
28683;BME280;15862;43.062;25.626;2023-02-12T10:56:24;101356.53;;;11.80;38.96
28683;BME280;15862;43.062;25.626;2023-02-12T11:01:22;101360.16;;;10.98;40.16
28683;BME280;15862;43.062;25.626;2023-02-12T11:03:50;101370.97;;;10.57;40.78
28683;BME280;15862;43.062;25.626;2023-02-12T11:06:25;101360.16;;;10.32;41.42
28683;BME280;15862;43.062;25.626;2023-02-12T11:08:52;101356.13;;;10.26;41.78
28683;BME280;15862;43.062;25.626;2023-02-12T11:11:25;101354.47;;;9.90;43.57
28683;BME280;15862;43.062;25.626;2023-02-12T11:13:59;101362.81;;;10.47;43.10
28683;BME280;15862;43.062;25.626;2023-02-12T11:19:01;101346.97;;;11.35;40.97
28683;BME280;15862;43.062;25.626;2023-02-12T11:21:29;101353.59;;;12.31;39.23
28683;BME280;15862;43.062;25.626;2023-02-12T11:23:54;101355.63;;;13.12;38.42
28683;BME280;15862;43.062;25.626;2023-02-12T11:29:22;101352.66;;;15.98;33.80
28683;BME280;15862;43.062;25.626;2023-02-12T11:32:02;101350.22;;;16.97;32.26
28683;BME280;15862;43.062;25.626;2023-02-12T11:34:28;101357.03;;;17.33;32.65
28683;BME280;15862;43.062;25.626;2023-02-12T11:36:54;101356.84;;;18.31;32.64
28683;BME280;15862;43.062;25.626;2023-02-12T11:41:56;101358.69;;;19.40;29.07
28683;BME280;15862;43.062;25.626;2023-02-12T11:44:31;101363.84;;;18.31;30.17
28683;BME280;15862;43.062;25.626;2023-02-12T11:47:05;101359.03;;;16.96;31.31
28683;BME280;15862;43.062;25.626;2023-02-12T11:49:37;101360.69;;;15.95;32.66
28683;BME280;15862;43.062;25.626;2023-02-12T11:52:04;101357.00;;;14.63;33.31
28683;BME280;15862;43.062;25.626;2023-02-12T11:54:35;101365.47;;;12.78;36.76
28683;BME280;15862;43.062;25.626;2023-02-12T11:57:03;101372.75;;;11.68;39.87
28683;BME280;15862;43.062;25.626;2023-02-12T11:59:54;101358.06;;;11.37;40.35
28683;BME280;15862;43.062;25.626;2023-02-12T12:02:31;101360.13;;;11.15;40.90
28683;BME280;15862;43.062;25.626;2023-02-12T12:05:11;101357.88;;;11.24;40.69
28683;BME280;15862;43.062;25.626;2023-02-12T12:07:42;101358.91;;;10.89;42.32
28683;BME280;15862;43.062;25.626;2023-02-12T12:10:15;101366.00;;;10.69;42.05
28683;BME280;15862;43.062;25.626;2023-02-12T12:12:43;101370.09;;;10.56;43.12
28683;BME280;15862;43.062;25.626;2023-02-12T12:15:16;101364.22;;;10.86;42.06
28683;BME280;15862;43.062;25.626;2023-02-12T12:18:12;101375.16;;;11.24;41.13
28683;BME280;15862;43.062;25.626;2023-02-12T12:23:57;101359.66;;;11.24;41.35
28683;BME280;15862;43.062;25.626;2023-02-12T12:26:26;101372.00;;;11.66;40.93
28683;BME280;15862;43.062;25.626;2023-02-12T12:31:37;101374.88;;;10.80;42.70
28683;BME280;15862;43.062;25.626;2023-02-12T12:34:16;101370.88;;;10.41;43.85
28683;BME280;15862;43.062;25.626;2023-02-12T12:45:29;101373.09;;;10.49;43.80
28683;BME280;15862;43.062;25.626;2023-02-12T12:51:22;101395.47;;;9.41;46.92
28683;BME280;15862;43.062;25.626;2023-02-12T13:04:35;101417.94;;;7.53;51.26
28683;BME280;15862;43.062;25.626;2023-02-12T13:13:12;101423.47;;;7.19;53.87
28683;BME280;15862;43.062;25.626;2023-02-12T13:27:21;101448.03;;;6.78;55.61
28683;BME280;15862;43.062;25.626;2023-02-12T13:29:53;101435.69;;;6.64;56.55
28683;BME280;15862;43.062;25.626;2023-02-12T13:32:33;101447.28;;;6.76;56.20
28683;BME280;15862;43.062;25.626;2023-02-12T13:35:01;101453.19;;;6.78;55.86
28683;BME280;15862;43.062;25.626;2023-02-12T13:37:41;101453.38;;;6.72;55.70
28683;BME280;15862;43.062;25.626;2023-02-12T13:40:31;101454.34;;;6.69;56.60
28683;BME280;15862;43.062;25.626;2023-02-12T13:43:22;101457.34;;;6.56;57.85
28683;BME280;15862;43.062;25.626;2023-02-12T13:51:28;101479.97;;;6.45;60.51
28683;BME280;15862;43.062;25.626;2023-02-12T13:54:18;101473.44;;;6.35;60.53
28683;BME280;15862;43.062;25.626;2023-02-12T13:56:53;101476.53;;;6.44;61.32
28683;BME280;15862;43.062;25.626;2023-02-12T14:01:58;101488.16;;;6.56;62.35
28683;BME280;15862;43.062;25.626;2023-02-12T14:07:08;101502.59;;;6.58;64.21
28683;BME280;15862;43.062;25.626;2023-02-12T14:10:02;101510.88;;;6.68;61.98
28683;BME280;15862;43.062;25.626;2023-02-12T14:12:35;101513.22;;;6.48;63.62
28683;BME280;15862;43.062;25.626;2023-02-12T14:28:17;101530.94;;;6.28;70.21
28683;BME280;15862;43.062;25.626;2023-02-12T14:30:36;101550.59;;;6.29;69.01
28683;BME280;15862;43.062;25.626;2023-02-12T14:33:22;101552.16;;;6.33;72.41
28683;BME280;15862;43.062;25.626;2023-02-12T14:36:12;101553.97;;;6.31;72.37
28683;BME280;15862;43.062;25.626;2023-02-12T14:52:05;101578.34;;;5.54;86.33
28683;BME280;15862;43.062;25.626;2023-02-12T14:55:00;101588.75;;;5.48;88.89
28683;BME280;15862;43.062;25.626;2023-02-12T14:57:34;101541.75;;;5.18;88.89
28683;BME280;15862;43.062;25.626;2023-02-12T15:03:00;101599.34;;;5.36;89.48
28683;BME280;15862;43.062;25.626;2023-02-12T15:05:30;101595.03;;;5.37;88.15
28683;BME280;15862;43.062;25.626;2023-02-12T15:08:01;101606.91;;;5.39;91.15
28683;BME280;15862;43.062;25.626;2023-02-12T15:10:39;101614.59;;;5.39;90.46
28683;BME280;15862;43.062;25.626;2023-02-12T15:13:26;101588.75;;;5.15;90.47
28683;BME280;15862;43.062;25.626;2023-02-12T15:16:21;101604.13;;;5.15;87.59
28683;BME280;15862;43.062;25.626;2023-02-12T15:21:24;101620.19;;;5.22;88.46
28683;BME280;15862;43.062;25.626;2023-02-12T15:24:09;101619.31;;;5.23;89.74
28683;BME280;15862;43.062;25.626;2023-02-12T15:26:43;101622.59;;;5.28;91.03
28683;BME280;15862;43.062;25.626;2023-02-12T15:29:20;101636.34;;;5.24;92.42
28683;BME280;15862;43.062;25.626;2023-02-12T15:32:06;101628.16;;;5.11;91.66
28683;BME280;15862;43.062;25.626;2023-02-12T15:34:33;101628.16;;;5.11;94.12
28683;BME280;15862;43.062;25.626;2023-02-12T15:37:03;101620.28;;;4.82;97.68
28683;BME280;15862;43.062;25.626;2023-02-12T15:39:39;101647.34;;;4.94;97.78
28683;BME280;15862;43.062;25.626;2023-02-12T15:45:01;101657.25;;;4.71;100.00
28683;BME280;15862;43.062;25.626;2023-02-12T15:47:26;101665.94;;;4.62;100.00
28683;BME280;15862;43.062;25.626;2023-02-12T15:49:58;101660.25;;;4.50;100.00
28683;BME280;15862;43.062;25.626;2023-02-12T15:52:29;101673.97;;;4.46;100.00